Terminal Aerodrome Forecast
Issued by NWS Boston, MA

Home | Current Version | Previous Version | Text Only | Print | Product List | Glossary On
Versions: 1 2 3 4 5 6 7 8 9 10 11 12 13 14 15 16 17 18 19 20 21 22 23 24 25 26
000
FTUS41 KBOX 270111 AAA
TAFBOS
TAF AMD
KBOS 270111Z 2701/2806 07007KT 6SM BR VCSH OVC015
     FM270200 01009KT P6SM BKN015
     FM270800 31009KT P6SM BKN020
     FM271100 36010KT P6SM BKN020
     FM271300 03010KT P6SM BKN020
     FM271700 08008KT P6SM BKN025
     FM280000 12006KT P6SM BKN030
     FM280200 15005KT P6SM BKN025=

USA.gov is the U.S. government's official web portal to all federal, state and local government web resources and services.